sensor_id;sensor_type;location;lat;lon;timestamp;P1;durP1;ratioP1;P2;durP2;ratioP2
5612;SDS011;63463;53.586;9.928;2022-11-23T00:01:45;30.43;;;17.67;;
5612;SDS011;63463;53.586;9.928;2022-11-23T00:04:12;40.37;;;18.07;;
5612;SDS011;63463;53.586;9.928;2022-11-23T00:06:38;45.07;;;19.50;;
5612;SDS011;63463;53.586;9.928;2022-11-23T00:09:05;41.00;;;17.87;;
5612;SDS011;63463;53.586;9.928;2022-11-23T00:11:32;48.07;;;20.63;;
5612;SDS011;63463;53.586;9.928;2022-11-23T00:13:58;33.40;;;18.20;;
5612;SDS011;63463;53.586;9.928;2022-11-23T00:16:26;46.07;;;18.47;;
5612;SDS011;63463;53.586;9.928;2022-11-23T00:18:56;45.17;;;18.47;;
5612;SDS011;63463;53.586;9.928;2022-11-23T00:21:23;41.60;;;18.47;;
5612;SDS011;63463;53.586;9.928;2022-11-23T00:23:49;34.53;;;17.80;;
5612;SDS011;63463;53.586;9.928;2022-11-23T00:26:16;38.00;;;18.03;;
5612;SDS011;63463;53.586;9.928;2022-11-23T00:28:42;36.63;;;18.20;;
5612;SDS011;63463;53.586;9.928;2022-11-23T00:31:09;34.80;;;18.50;;
5612;SDS011;63463;53.586;9.928;2022-11-23T00:33:36;37.07;;;17.97;;
5612;SDS011;63463;53.586;9.928;2022-11-23T00:36:03;40.90;;;19.23;;
5612;SDS011;63463;53.586;9.928;2022-11-23T00:38:29;43.20;;;19.47;;
5612;SDS011;63463;53.586;9.928;2022-11-23T00:41:03;32.90;;;16.50;;
5612;SDS011;63463;53.586;9.928;2022-11-23T00:43:29;32.60;;;16.63;;
5612;SDS011;63463;53.586;9.928;2022-11-23T00:46:05;33.97;;;18.27;;
5612;SDS011;63463;53.586;9.928;2022-11-23T00:48:31;37.80;;;18.43;;
5612;SDS011;63463;53.586;9.928;2022-11-23T00:51:05;37.57;;;20.10;;
5612;SDS011;63463;53.586;9.928;2022-11-23T00:53:31;41.63;;;19.00;;
5612;SDS011;63463;53.586;9.928;2022-11-23T00:55:57;39.70;;;17.67;;
5612;SDS011;63463;53.586;9.928;2022-11-23T00:58:23;38.30;;;19.37;;
5612;SDS011;63463;53.586;9.928;2022-11-23T01:00:49;40.57;;;18.60;;
5612;SDS011;63463;53.586;9.928;2022-11-23T01:03:15;39.50;;;18.50;;
5612;SDS011;63463;53.586;9.928;2022-11-23T01:05:41;53.87;;;20.47;;
5612;SDS011;63463;53.586;9.928;2022-11-23T01:08:07;37.57;;;18.60;;
5612;SDS011;63463;53.586;9.928;2022-11-23T01:10:33;38.07;;;18.50;;
5612;SDS011;63463;53.586;9.928;2022-11-23T01:12:59;45.30;;;19.60;;
5612;SDS011;63463;53.586;9.928;2022-11-23T01:15:25;43.07;;;17.67;;
5612;SDS011;63463;53.586;9.928;2022-11-23T01:17:51;36.40;;;18.40;;
5612;SDS011;63463;53.586;9.928;2022-11-23T01:20:17;43.37;;;18.10;;
5612;SDS011;63463;53.586;9.928;2022-11-23T01:22:43;37.10;;;17.30;;
5612;SDS011;63463;53.586;9.928;2022-11-23T01:25:09;36.80;;;16.70;;
5612;SDS011;63463;53.586;9.928;2022-11-23T01:27:35;39.03;;;17.17;;
5612;SDS011;63463;53.586;9.928;2022-11-23T01:30:01;40.80;;;18.53;;
5612;SDS011;63463;53.586;9.928;2022-11-23T01:32:27;35.67;;;17.67;;
5612;SDS011;63463;53.586;9.928;2022-11-23T01:34:53;46.73;;;18.50;;
5612;SDS011;63463;53.586;9.928;2022-11-23T01:37:19;37.03;;;17.10;;
5612;SDS011;63463;53.586;9.928;2022-11-23T01:39:46;51.20;;;18.90;;
5612;SDS011;63463;53.586;9.928;2022-11-23T01:42:12;33.13;;;17.27;;
5612;SDS011;63463;53.586;9.928;2022-11-23T01:44:40;36.73;;;18.97;;
5612;SDS011;63463;53.586;9.928;2022-11-23T01:47:07;35.83;;;17.67;;
5612;SDS011;63463;53.586;9.928;2022-11-23T01:49:40;33.03;;;16.20;;
5612;SDS011;63463;53.586;9.928;2022-11-23T01:52:11;35.37;;;18.13;;
5612;SDS011;63463;53.586;9.928;2022-11-23T01:54:44;35.93;;;17.47;;
5612;SDS011;63463;53.586;9.928;2022-11-23T01:57:12;38.90;;;17.40;;
5612;SDS011;63463;53.586;9.928;2022-11-23T01:59:41;43.07;;;19.50;;
5612;SDS011;63463;53.586;9.928;2022-11-23T02:02:07;36.03;;;18.10;;
5612;SDS011;63463;53.586;9.928;2022-11-23T02:04:34;38.23;;;17.40;;
5612;SDS011;63463;53.586;9.928;2022-11-23T02:07:01;34.83;;;17.97;;
5612;SDS011;63463;53.586;9.928;2022-11-23T02:09:28;29.83;;;16.70;;
5612;SDS011;63463;53.586;9.928;2022-11-23T02:11:56;29.07;;;17.10;;
5612;SDS011;63463;53.586;9.928;2022-11-23T02:14:22;35.57;;;18.43;;
5612;SDS011;63463;53.586;9.928;2022-11-23T02:16:48;39.37;;;18.23;;
5612;SDS011;63463;53.586;9.928;2022-11-23T02:19:58;29.37;;;16.30;;
5612;SDS011;63463;53.586;9.928;2022-11-23T02:22:04;46.00;;;17.70;;
5612;SDS011;63463;53.586;9.928;2022-11-23T02:24:33;35.30;;;16.77;;
5612;SDS011;63463;53.586;9.928;2022-11-23T02:27:01;35.70;;;17.70;;
5612;SDS011;63463;53.586;9.928;2022-11-23T02:29:28;33.20;;;17.17;;
5612;SDS011;63463;53.586;9.928;2022-11-23T02:31:54;31.10;;;16.33;;
5612;SDS011;63463;53.586;9.928;2022-11-23T02:34:20;37.00;;;17.97;;
5612;SDS011;63463;53.586;9.928;2022-11-23T02:36:47;41.70;;;17.07;;
5612;SDS011;63463;53.586;9.928;2022-11-23T02:39:30;34.87;;;16.57;;
5612;SDS011;63463;53.586;9.928;2022-11-23T02:41:57;35.27;;;17.40;;
5612;SDS011;63463;53.586;9.928;2022-11-23T02:46:52;39.37;;;15.73;;
5612;SDS011;63463;53.586;9.928;2022-11-23T02:49:18;31.40;;;16.40;;
5612;SDS011;63463;53.586;9.928;2022-11-23T02:51:44;43.47;;;19.67;;
5612;SDS011;63463;53.586;9.928;2022-11-23T02:54:10;42.40;;;18.70;;
5612;SDS011;63463;53.586;9.928;2022-11-23T02:56:36;38.00;;;18.57;;
5612;SDS011;63463;53.586;9.928;2022-11-23T02:59:02;33.97;;;17.00;;
5612;SDS011;63463;53.586;9.928;2022-11-23T03:01:28;34.20;;;17.43;;
5612;SDS011;63463;53.586;9.928;2022-11-23T03:03:54;35.80;;;17.90;;
5612;SDS011;63463;53.586;9.928;2022-11-23T03:06:20;39.93;;;16.67;;
5612;SDS011;63463;53.586;9.928;2022-11-23T03:08:46;36.30;;;17.10;;
5612;SDS011;63463;53.586;9.928;2022-11-23T03:11:12;41.27;;;17.37;;
5612;SDS011;63463;53.586;9.928;2022-11-23T03:13:38;33.20;;;16.27;;
5612;SDS011;63463;53.586;9.928;2022-11-23T03:16:04;35.53;;;16.10;;
5612;SDS011;63463;53.586;9.928;2022-11-23T03:18:30;37.63;;;17.00;;
5612;SDS011;63463;53.586;9.928;2022-11-23T03:21:03;31.30;;;16.83;;
5612;SDS011;63463;53.586;9.928;2022-11-23T03:23:29;35.20;;;16.23;;
5612;SDS011;63463;53.586;9.928;2022-11-23T03:25:56;30.30;;;16.87;;
5612;SDS011;63463;53.586;9.928;2022-11-23T03:28:23;33.30;;;17.23;;
5612;SDS011;63463;53.586;9.928;2022-11-23T03:30:49;32.27;;;16.97;;
5612;SDS011;63463;53.586;9.928;2022-11-23T03:33:15;30.03;;;16.20;;
5612;SDS011;63463;53.586;9.928;2022-11-23T03:35:41;31.10;;;16.37;;
5612;SDS011;63463;53.586;9.928;2022-11-23T03:38:07;35.77;;;17.50;;
5612;SDS011;63463;53.586;9.928;2022-11-23T03:40:34;41.87;;;16.37;;
5612;SDS011;63463;53.586;9.928;2022-11-23T03:43:00;39.33;;;16.67;;
5612;SDS011;63463;53.586;9.928;2022-11-23T03:45:25;29.67;;;15.47;;
5612;SDS011;63463;53.586;9.928;2022-11-23T03:47:52;37.97;;;15.93;;
5612;SDS011;63463;53.586;9.928;2022-11-23T03:50:18;32.80;;;17.70;;
5612;SDS011;63463;53.586;9.928;2022-11-23T03:52:44;30.90;;;15.43;;
5612;SDS011;63463;53.586;9.928;2022-11-23T03:55:10;36.83;;;16.33;;
5612;SDS011;63463;53.586;9.928;2022-11-23T03:57:36;35.37;;;16.63;;
5612;SDS011;63463;53.586;9.928;2022-11-23T04:00:02;35.67;;;16.00;;
5612;SDS011;63463;53.586;9.928;2022-11-23T04:02:29;36.73;;;16.00;;
5612;SDS011;63463;53.586;9.928;2022-11-23T04:04:55;32.43;;;15.97;;
5612;SDS011;63463;53.586;9.928;2022-11-23T04:07:21;33.57;;;16.07;;
5612;SDS011;63463;53.586;9.928;2022-11-23T04:09:46;49.83;;;17.17;;
5612;SDS011;63463;53.586;9.928;2022-11-23T04:12:12;30.43;;;16.63;;
5612;SDS011;63463;53.586;9.928;2022-11-23T04:14:38;34.50;;;16.00;;
5612;SDS011;63463;53.586;9.928;2022-11-23T04:17:04;29.03;;;15.50;;
5612;SDS011;63463;53.586;9.928;2022-11-23T04:19:30;33.80;;;16.47;;
5612;SDS011;63463;53.586;9.928;2022-11-23T04:21:56;27.60;;;16.50;;
5612;SDS011;63463;53.586;9.928;2022-11-23T04:24:23;41.00;;;18.20;;
5612;SDS011;63463;53.586;9.928;2022-11-23T04:26:49;33.60;;;17.10;;
5612;SDS011;63463;53.586;9.928;2022-11-23T04:29:15;34.03;;;16.10;;
5612;SDS011;63463;53.586;9.928;2022-11-23T04:31:41;34.20;;;16.20;;
5612;SDS011;63463;53.586;9.928;2022-11-23T04:34:07;29.80;;;17.00;;
5612;SDS011;63463;53.586;9.928;2022-11-23T04:36:33;29.43;;;16.40;;
5612;SDS011;63463;53.586;9.928;2022-11-23T04:38:59;32.77;;;15.40;;
5612;SDS011;63463;53.586;9.928;2022-11-23T04:41:27;31.07;;;15.33;;
5612;SDS011;63463;53.586;9.928;2022-11-23T04:43:53;30.33;;;16.43;;
5612;SDS011;63463;53.586;9.928;2022-11-23T04:46:19;29.30;;;16.67;;
5612;SDS011;63463;53.586;9.928;2022-11-23T04:48:45;34.53;;;16.20;;
5612;SDS011;63463;53.586;9.928;2022-11-23T04:51:12;28.90;;;15.10;;
5612;SDS011;63463;53.586;9.928;2022-11-23T04:53:38;38.00;;;16.80;;
5612;SDS011;63463;53.586;9.928;2022-11-23T04:56:04;27.33;;;15.40;;
5612;SDS011;63463;53.586;9.928;2022-11-23T04:58:30;30.33;;;16.50;;
5612;SDS011;63463;53.586;9.928;2022-11-23T05:00:56;27.23;;;14.73;;
5612;SDS011;63463;53.586;9.928;2022-11-23T05:03:22;29.03;;;15.30;;
5612;SDS011;63463;53.586;9.928;2022-11-23T05:05:48;34.90;;;16.43;;
5612;SDS011;63463;53.586;9.928;2022-11-23T05:08:14;37.00;;;16.07;;
5612;SDS011;63463;53.586;9.928;2022-11-23T05:10:40;25.53;;;15.10;;
5612;SDS011;63463;53.586;9.928;2022-11-23T05:13:06;39.70;;;16.90;;
5612;SDS011;63463;53.586;9.928;2022-11-23T05:15:32;31.43;;;15.03;;
5612;SDS011;63463;53.586;9.928;2022-11-23T05:18:05;34.20;;;16.30;;
5612;SDS011;63463;53.586;9.928;2022-11-23T05:20:31;34.43;;;15.10;;
5612;SDS011;63463;53.586;9.928;2022-11-23T05:22:57;32.50;;;17.10;;
5612;SDS011;63463;53.586;9.928;2022-11-23T05:25:23;28.57;;;15.67;;
5612;SDS011;63463;53.586;9.928;2022-11-23T05:27:50;27.07;;;15.50;;
5612;SDS011;63463;53.586;9.928;2022-11-23T05:30:16;25.87;;;13.93;;
5612;SDS011;63463;53.586;9.928;2022-11-23T05:32:42;33.57;;;16.67;;
5612;SDS011;63463;53.586;9.928;2022-11-23T05:35:08;26.73;;;15.97;;
5612;SDS011;63463;53.586;9.928;2022-11-23T05:37:34;23.40;;;14.60;;
5612;SDS011;63463;53.586;9.928;2022-11-23T05:40:00;30.77;;;15.20;;
5612;SDS011;63463;53.586;9.928;2022-11-23T05:42:26;32.57;;;15.87;;
5612;SDS011;63463;53.586;9.928;2022-11-23T05:44:52;28.20;;;15.10;;
5612;SDS011;63463;53.586;9.928;2022-11-23T05:47:18;24.50;;;14.80;;
5612;SDS011;63463;53.586;9.928;2022-11-23T05:49:44;27.97;;;15.40;;
5612;SDS011;63463;53.586;9.928;2022-11-23T05:52:10;32.47;;;14.43;;
5612;SDS011;63463;53.586;9.928;2022-11-23T05:54:36;28.13;;;15.87;;
5612;SDS011;63463;53.586;9.928;2022-11-23T05:57:02;28.57;;;16.17;;
5612;SDS011;63463;53.586;9.928;2022-11-23T05:59:28;28.83;;;15.37;;
5612;SDS011;63463;53.586;9.928;2022-11-23T06:01:54;31.10;;;14.70;;
5612;SDS011;63463;53.586;9.928;2022-11-23T06:04:20;29.77;;;14.57;;
5612;SDS011;63463;53.586;9.928;2022-11-23T06:06:46;25.20;;;14.80;;
5612;SDS011;63463;53.586;9.928;2022-11-23T06:09:12;30.30;;;15.53;;
5612;SDS011;63463;53.586;9.928;2022-11-23T06:11:37;34.63;;;15.50;;
5612;SDS011;63463;53.586;9.928;2022-11-23T06:14:04;36.53;;;15.33;;
5612;SDS011;63463;53.586;9.928;2022-11-23T06:16:29;25.17;;;14.53;;
5612;SDS011;63463;53.586;9.928;2022-11-23T06:18:56;30.83;;;14.43;;
5612;SDS011;63463;53.586;9.928;2022-11-23T06:21:22;28.93;;;13.90;;
5612;SDS011;63463;53.586;9.928;2022-11-23T06:23:48;33.10;;;15.50;;
5612;SDS011;63463;53.586;9.928;2022-11-23T06:26:14;26.37;;;14.67;;
5612;SDS011;63463;53.586;9.928;2022-11-23T06:28:40;28.17;;;13.60;;
5612;SDS011;63463;53.586;9.928;2022-11-23T06:31:06;29.77;;;15.57;;
5612;SDS011;63463;53.586;9.928;2022-11-23T06:33:34;26.87;;;14.83;;
5612;SDS011;63463;53.586;9.928;2022-11-23T06:36:00;28.40;;;15.57;;
5612;SDS011;63463;53.586;9.928;2022-11-23T06:38:26;31.17;;;14.67;;
5612;SDS011;63463;53.586;9.928;2022-11-23T06:40:56;24.63;;;15.07;;
5612;SDS011;63463;53.586;9.928;2022-11-23T06:43:22;31.73;;;14.73;;
5612;SDS011;63463;53.586;9.928;2022-11-23T06:45:48;32.20;;;15.30;;
5612;SDS011;63463;53.586;9.928;2022-11-23T06:48:14;27.63;;;13.90;;
5612;SDS011;63463;53.586;9.928;2022-11-23T06:50:40;28.30;;;15.40;;
5612;SDS011;63463;53.586;9.928;2022-11-23T06:53:06;24.80;;;14.60;;
5612;SDS011;63463;53.586;9.928;2022-11-23T06:55:32;27.47;;;14.97;;
5612;SDS011;63463;53.586;9.928;2022-11-23T06:57:58;32.00;;;14.43;;
5612;SDS011;63463;53.586;9.928;2022-11-23T07:00:24;29.70;;;14.70;;
5612;SDS011;63463;53.586;9.928;2022-11-23T07:02:50;29.90;;;14.50;;
5612;SDS011;63463;53.586;9.928;2022-11-23T07:05:16;24.30;;;14.47;;
5612;SDS011;63463;53.586;9.928;2022-11-23T07:07:43;29.20;;;14.27;;
5612;SDS011;63463;53.586;9.928;2022-11-23T07:10:09;36.73;;;14.93;;
5612;SDS011;63463;53.586;9.928;2022-11-23T07:12:35;26.30;;;14.10;;
5612;SDS011;63463;53.586;9.928;2022-11-23T07:15:01;24.73;;;14.37;;
5612;SDS011;63463;53.586;9.928;2022-11-23T07:17:27;32.33;;;14.33;;
5612;SDS011;63463;53.586;9.928;2022-11-23T07:19:53;32.77;;;14.30;;
5612;SDS011;63463;53.586;9.928;2022-11-23T07:22:19;29.50;;;16.00;;
5612;SDS011;63463;53.586;9.928;2022-11-23T07:24:45;25.87;;;14.70;;
5612;SDS011;63463;53.586;9.928;2022-11-23T07:27:10;30.33;;;14.30;;
5612;SDS011;63463;53.586;9.928;2022-11-23T07:29:36;33.03;;;17.23;;
5612;SDS011;63463;53.586;9.928;2022-11-23T07:32:02;22.53;;;13.37;;
5612;SDS011;63463;53.586;9.928;2022-11-23T07:34:28;23.73;;;13.40;;
5612;SDS011;63463;53.586;9.928;2022-11-23T07:36:54;27.13;;;14.50;;
5612;SDS011;63463;53.586;9.928;2022-11-23T07:39:20;31.57;;;14.53;;
5612;SDS011;63463;53.586;9.928;2022-11-23T07:41:49;40.30;;;15.23;;
5612;SDS011;63463;53.586;9.928;2022-11-23T07:44:15;25.90;;;13.13;;
5612;SDS011;63463;53.586;9.928;2022-11-23T07:46:41;36.03;;;15.30;;
5612;SDS011;63463;53.586;9.928;2022-11-23T07:49:07;24.20;;;13.80;;
5612;SDS011;63463;53.586;9.928;2022-11-23T07:51:33;25.33;;;13.00;;
5612;SDS011;63463;53.586;9.928;2022-11-23T07:53:59;31.43;;;14.67;;
5612;SDS011;63463;53.586;9.928;2022-11-23T07:56:25;27.03;;;14.17;;
5612;SDS011;63463;53.586;9.928;2022-11-23T07:58:51;25.77;;;14.67;;
5612;SDS011;63463;53.586;9.928;2022-11-23T08:01:18;22.20;;;13.60;;
5612;SDS011;63463;53.586;9.928;2022-11-23T08:03:45;28.50;;;14.80;;
5612;SDS011;63463;53.586;9.928;2022-11-23T08:06:11;33.90;;;12.93;;
5612;SDS011;63463;53.586;9.928;2022-11-23T08:08:37;27.13;;;13.20;;
5612;SDS011;63463;53.586;9.928;2022-11-23T08:11:07;28.50;;;13.83;;
5612;SDS011;63463;53.586;9.928;2022-11-23T08:13:33;28.40;;;13.73;;
5612;SDS011;63463;53.586;9.928;2022-11-23T08:16:01;27.50;;;14.37;;
5612;SDS011;63463;53.586;9.928;2022-11-23T08:18:27;29.40;;;13.83;;
5612;SDS011;63463;53.586;9.928;2022-11-23T08:20:53;32.53;;;14.37;;
5612;SDS011;63463;53.586;9.928;2022-11-23T08:23:19;23.27;;;13.93;;
5612;SDS011;63463;53.586;9.928;2022-11-23T08:25:46;25.00;;;13.10;;
5612;SDS011;63463;53.586;9.928;2022-11-23T08:28:12;58.50;;;13.73;;
5612;SDS011;63463;53.586;9.928;2022-11-23T08:30:38;24.10;;;12.93;;
5612;SDS011;63463;53.586;9.928;2022-11-23T08:33:04;27.07;;;14.20;;
5612;SDS011;63463;53.586;9.928;2022-11-23T08:35:37;29.90;;;14.07;;
5612;SDS011;63463;53.586;9.928;2022-11-23T08:38:04;25.97;;;13.17;;
5612;SDS011;63463;53.586;9.928;2022-11-23T08:40:30;29.80;;;14.30;;
5612;SDS011;63463;53.586;9.928;2022-11-23T08:42:56;26.27;;;12.27;;
5612;SDS011;63463;53.586;9.928;2022-11-23T08:45:22;19.90;;;11.90;;
5612;SDS011;63463;53.586;9.928;2022-11-23T08:47:48;24.97;;;12.37;;
5612;SDS011;63463;53.586;9.928;2022-11-23T08:50:15;23.93;;;12.17;;
5612;SDS011;63463;53.586;9.928;2022-11-23T08:52:41;19.23;;;12.40;;
5612;SDS011;63463;53.586;9.928;2022-11-23T08:55:07;18.67;;;11.77;;
5612;SDS011;63463;53.586;9.928;2022-11-23T08:57:33;29.87;;;12.33;;
5612;SDS011;63463;53.586;9.928;2022-11-23T08:59:59;21.77;;;12.40;;
5612;SDS011;63463;53.586;9.928;2022-11-23T09:02:26;28.97;;;12.97;;
5612;SDS011;63463;53.586;9.928;2022-11-23T09:04:51;21.23;;;11.47;;
5612;SDS011;63463;53.586;9.928;2022-11-23T09:07:17;17.33;;;10.73;;
5612;SDS011;63463;53.586;9.928;2022-11-23T09:09:43;20.40;;;11.30;;
5612;SDS011;63463;53.586;9.928;2022-11-23T09:12:09;24.53;;;10.50;;
5612;SDS011;63463;53.586;9.928;2022-11-23T09:14:35;19.77;;;11.03;;
5612;SDS011;63463;53.586;9.928;2022-11-23T09:17:01;23.20;;;10.47;;
5612;SDS011;63463;53.586;9.928;2022-11-23T09:19:27;14.77;;;10.53;;
5612;SDS011;63463;53.586;9.928;2022-11-23T09:21:53;14.43;;;8.83;;
5612;SDS011;63463;53.586;9.928;2022-11-23T09:24:19;21.37;;;10.83;;
5612;SDS011;63463;53.586;9.928;2022-11-23T09:26:47;27.93;;;9.80;;
5612;SDS011;63463;53.586;9.928;2022-11-23T09:29:13;17.20;;;10.23;;
5612;SDS011;63463;53.586;9.928;2022-11-23T09:31:39;17.80;;;9.57;;
5612;SDS011;63463;53.586;9.928;2022-11-23T09:34:05;11.87;;;8.97;;
5612;SDS011;63463;53.586;9.928;2022-11-23T09:36:31;17.00;;;9.80;;
5612;SDS011;63463;53.586;9.928;2022-11-23T09:38:57;14.53;;;9.50;;
5612;SDS011;63463;53.586;9.928;2022-11-23T09:41:46;24.30;;;11.20;;
5612;SDS011;63463;53.586;9.928;2022-11-23T09:52:18;12.53;;;9.23;;
5612;SDS011;63463;53.586;9.928;2022-11-23T09:54:45;14.57;;;8.80;;
5612;SDS011;63463;53.586;9.928;2022-11-23T09:57:13;14.70;;;9.87;;
5612;SDS011;63463;53.586;9.928;2022-11-23T09:59:42;10.10;;;9.07;;
5612;SDS011;63463;53.586;9.928;2022-11-23T10:02:27;12.77;;;9.10;;
5612;SDS011;63463;53.586;9.928;2022-11-23T10:04:54;11.37;;;8.90;;
5612;SDS011;63463;53.586;9.928;2022-11-23T10:15:00;25.83;;;10.13;;
5612;SDS011;63463;53.586;9.928;2022-11-23T10:17:42;17.00;;;11.10;;
5612;SDS011;63463;53.586;9.928;2022-11-23T10:22:47;13.13;;;9.13;;
5612;SDS011;63463;53.586;9.928;2022-11-23T10:25:17;11.63;;;8.60;;
5612;SDS011;63463;53.586;9.928;2022-11-23T10:27:44;14.33;;;9.63;;
5612;SDS011;63463;53.586;9.928;2022-11-23T10:30:11;17.87;;;10.00;;
5612;SDS011;63463;53.586;9.928;2022-11-23T10:32:41;21.53;;;9.57;;
5612;SDS011;63463;53.586;9.928;2022-11-23T10:35:17;14.53;;;9.30;;
5612;SDS011;63463;53.586;9.928;2022-11-23T10:37:47;15.60;;;8.70;;
5612;SDS011;63463;53.586;9.928;2022-11-23T10:40:17;18.17;;;8.83;;
5612;SDS011;63463;53.586;9.928;2022-11-23T10:42:50;13.70;;;8.97;;
5612;SDS011;63463;53.586;9.928;2022-11-23T10:45:19;14.07;;;8.07;;
5612;SDS011;63463;53.586;9.928;2022-11-23T10:47:51;23.47;;;9.07;;
5612;SDS011;63463;53.586;9.928;2022-11-23T10:50:26;12.83;;;8.40;;
5612;SDS011;63463;53.586;9.928;2022-11-23T10:53:39;15.73;;;8.47;;
5612;SDS011;63463;53.586;9.928;2022-11-23T10:55:47;22.10;;;8.73;;
5612;SDS011;63463;53.586;9.928;2022-11-23T10:58:40;11.00;;;8.50;;
5612;SDS011;63463;53.586;9.928;2022-11-23T11:01:10;16.63;;;9.80;;
5612;SDS011;63463;53.586;9.928;2022-11-23T11:03:37;18.27;;;9.87;;
5612;SDS011;63463;53.586;9.928;2022-11-23T11:06:04;14.90;;;8.70;;
5612;SDS011;63463;53.586;9.928;2022-11-23T11:08:30;14.83;;;8.37;;
5612;SDS011;63463;53.586;9.928;2022-11-23T11:11:00;14.07;;;9.63;;
5612;SDS011;63463;53.586;9.928;2022-11-23T11:13:31;14.90;;;8.83;;
5612;SDS011;63463;53.586;9.928;2022-11-23T11:16:04;14.20;;;8.53;;
5612;SDS011;63463;53.586;9.928;2022-11-23T11:18:32;12.50;;;8.70;;
5612;SDS011;63463;53.586;9.928;2022-11-23T11:21:20;13.13;;;7.73;;
5612;SDS011;63463;53.586;9.928;2022-11-23T11:23:49;14.93;;;8.37;;
5612;SDS011;63463;53.586;9.928;2022-11-23T11:26:18;14.60;;;8.37;;
5612;SDS011;63463;53.586;9.928;2022-11-23T11:28:46;17.90;;;8.50;;
5612;SDS011;63463;53.586;9.928;2022-11-23T11:34:01;13.20;;;8.10;;
5612;SDS011;63463;53.586;9.928;2022-11-23T11:36:32;14.20;;;7.93;;
5612;SDS011;63463;53.586;9.928;2022-11-23T11:39:02;11.07;;;7.60;;
5612;SDS011;63463;53.586;9.928;2022-11-23T11:41:29;16.37;;;7.27;;
5612;SDS011;63463;53.586;9.928;2022-11-23T11:44:01;11.03;;;7.43;;
5612;SDS011;63463;53.586;9.928;2022-11-23T11:46:30;8.60;;;7.07;;
5612;SDS011;63463;53.586;9.928;2022-11-23T11:49:02;12.03;;;7.53;;
5612;SDS011;63463;53.586;9.928;2022-11-23T11:56:38;12.80;;;7.57;;
5612;SDS011;63463;53.586;9.928;2022-11-23T11:59:13;15.00;;;7.80;;
5612;SDS011;63463;53.586;9.928;2022-11-23T12:07:17;11.97;;;7.40;;
5612;SDS011;63463;53.586;9.928;2022-11-23T12:09:47;14.60;;;9.53;;
5612;SDS011;63463;53.586;9.928;2022-11-23T12:12:16;10.80;;;7.37;;
5612;SDS011;63463;53.586;9.928;2022-11-23T12:14:43;14.13;;;7.13;;
5612;SDS011;63463;53.586;9.928;2022-11-23T12:20:15;10.37;;;6.97;;
5612;SDS011;63463;53.586;9.928;2022-11-23T12:22:49;10.50;;;7.27;;
5612;SDS011;63463;53.586;9.928;2022-11-23T12:35:34;21.13;;;7.30;;
5612;SDS011;63463;53.586;9.928;2022-11-23T12:38:05;10.10;;;6.90;;
5612;SDS011;63463;53.586;9.928;2022-11-23T12:43:12;9.10;;;6.33;;
5612;SDS011;63463;53.586;9.928;2022-11-23T12:45:44;15.07;;;6.93;;
5612;SDS011;63463;53.586;9.928;2022-11-23T12:54:06;9.20;;;6.97;;
5612;SDS011;63463;53.586;9.928;2022-11-23T12:58:44;15.70;;;5.90;;
5612;SDS011;63463;53.586;9.928;2022-11-23T13:01:15;9.13;;;6.70;;
5612;SDS011;63463;53.586;9.928;2022-11-23T13:16:17;8.23;;;6.83;;
5612;SDS011;63463;53.586;9.928;2022-11-23T13:18:53;11.77;;;6.50;;
5612;SDS011;63463;53.586;9.928;2022-11-23T13:21:34;12.30;;;7.50;;
5612;SDS011;63463;53.586;9.928;2022-11-23T13:24:01;20.20;;;6.47;;
5612;SDS011;63463;53.586;9.928;2022-11-23T13:26:27;9.70;;;6.30;;
5612;SDS011;63463;53.586;9.928;2022-11-23T13:28:55;11.77;;;5.87;;
5612;SDS011;63463;53.586;9.928;2022-11-23T13:33:56;6.83;;;5.90;;
5612;SDS011;63463;53.586;9.928;2022-11-23T13:38:58;9.97;;;6.73;;
5612;SDS011;63463;53.586;9.928;2022-11-23T13:44:09;12.70;;;6.20;;
5612;SDS011;63463;53.586;9.928;2022-11-23T13:46:36;7.53;;;6.50;;
5612;SDS011;63463;53.586;9.928;2022-11-23T13:49:02;11.30;;;6.47;;
5612;SDS011;63463;53.586;9.928;2022-11-23T13:51:31;9.53;;;6.20;;
5612;SDS011;63463;53.586;9.928;2022-11-23T13:53:59;7.60;;;6.00;;
5612;SDS011;63463;53.586;9.928;2022-11-23T13:56:31;6.77;;;6.17;;
5612;SDS011;63463;53.586;9.928;2022-11-23T13:59:18;11.20;;;6.80;;
5612;SDS011;63463;53.586;9.928;2022-11-23T14:07:03;7.97;;;6.70;;
5612;SDS011;63463;53.586;9.928;2022-11-23T14:09:34;11.20;;;5.97;;
5612;SDS011;63463;53.586;9.928;2022-11-23T14:14:32;10.57;;;6.30;;
5612;SDS011;63463;53.586;9.928;2022-11-23T14:22:32;8.00;;;6.40;;
5612;SDS011;63463;53.586;9.928;2022-11-23T14:25:11;9.87;;;5.90;;
5612;SDS011;63463;53.586;9.928;2022-11-23T14:35:24;5.77;;;5.27;;
5612;SDS011;63463;53.586;9.928;2022-11-23T14:41:36;7.30;;;5.43;;
5612;SDS011;63463;53.586;9.928;2022-11-23T14:43:32;10.23;;;5.50;;
5612;SDS011;63463;53.586;9.928;2022-11-23T14:45:59;7.83;;;5.90;;
5612;SDS011;63463;53.586;9.928;2022-11-23T14:48:27;6.03;;;5.50;;
5612;SDS011;63463;53.586;9.928;2022-11-23T14:50:54;10.30;;;5.80;;
5612;SDS011;63463;53.586;9.928;2022-11-23T14:53:22;9.83;;;6.10;;
5612;SDS011;63463;53.586;9.928;2022-11-23T14:55:48;8.47;;;6.27;;
5612;SDS011;63463;53.586;9.928;2022-11-23T14:58:15;8.80;;;7.27;;
5612;SDS011;63463;53.586;9.928;2022-11-23T15:00:41;15.70;;;6.90;;
5612;SDS011;63463;53.586;9.928;2022-11-23T15:03:13;11.87;;;6.60;;
5612;SDS011;63463;53.586;9.928;2022-11-23T15:05:41;16.90;;;6.30;;
5612;SDS011;63463;53.586;9.928;2022-11-23T15:08:10;7.23;;;6.40;;
5612;SDS011;63463;53.586;9.928;2022-11-23T15:10:49;8.33;;;6.63;;
5612;SDS011;63463;53.586;9.928;2022-11-23T15:13:21;12.07;;;7.27;;
5612;SDS011;63463;53.586;9.928;2022-11-23T15:15:50;9.20;;;6.67;;
5612;SDS011;63463;53.586;9.928;2022-11-23T15:18:36;10.27;;;6.97;;
5612;SDS011;63463;53.586;9.928;2022-11-23T15:23:41;7.97;;;7.10;;
5612;SDS011;63463;53.586;9.928;2022-11-23T15:28:39;8.10;;;7.30;;
5612;SDS011;63463;53.586;9.928;2022-11-23T15:31:18;11.73;;;7.07;;
5612;SDS011;63463;53.586;9.928;2022-11-23T15:33:45;11.47;;;7.00;;
5612;SDS011;63463;53.586;9.928;2022-11-23T15:36:12;8.10;;;6.80;;
5612;SDS011;63463;53.586;9.928;2022-11-23T15:38:39;12.53;;;7.73;;
5612;SDS011;63463;53.586;9.928;2022-11-23T15:41:05;14.43;;;7.83;;
5612;SDS011;63463;53.586;9.928;2022-11-23T15:43:31;25.20;;;8.40;;
5612;SDS011;63463;53.586;9.928;2022-11-23T15:46:04;11.27;;;8.50;;
5612;SDS011;63463;53.586;9.928;2022-11-23T15:48:36;13.40;;;8.33;;
5612;SDS011;63463;53.586;9.928;2022-11-23T15:51:03;18.80;;;8.80;;
5612;SDS011;63463;53.586;9.928;2022-11-23T15:53:31;12.77;;;8.10;;
5612;SDS011;63463;53.586;9.928;2022-11-23T15:55:59;15.00;;;8.10;;
5612;SDS011;63463;53.586;9.928;2022-11-23T15:58:26;24.47;;;8.43;;
5612;SDS011;63463;53.586;9.928;2022-11-23T16:00:53;20.73;;;8.40;;
5612;SDS011;63463;53.586;9.928;2022-11-23T16:03:31;13.30;;;8.50;;
5612;SDS011;63463;53.586;9.928;2022-11-23T16:08:35;12.87;;;8.40;;
5612;SDS011;63463;53.586;9.928;2022-11-23T16:11:02;11.93;;;7.73;;
5612;SDS011;63463;53.586;9.928;2022-11-23T16:13:36;16.53;;;9.27;;
5612;SDS011;63463;53.586;9.928;2022-11-23T16:16:12;27.10;;;9.00;;
5612;SDS011;63463;53.586;9.928;2022-11-23T16:18:42;13.00;;;9.60;;
5612;SDS011;63463;53.586;9.928;2022-11-23T16:21:11;19.03;;;9.40;;
5612;SDS011;63463;53.586;9.928;2022-11-23T16:23:51;18.03;;;9.80;;
5612;SDS011;63463;53.586;9.928;2022-11-23T16:26:18;17.00;;;10.00;;
5612;SDS011;63463;53.586;9.928;2022-11-23T16:33:53;14.30;;;9.37;;
5612;SDS011;63463;53.586;9.928;2022-11-23T16:36:19;16.60;;;10.10;;
5612;SDS011;63463;53.586;9.928;2022-11-23T16:38:45;16.67;;;10.07;;
5612;SDS011;63463;53.586;9.928;2022-11-23T16:41:11;12.90;;;9.47;;